.
WxDataArchive / Data Records for 2015-08-08
2015-08-07 August 2015 2015-08-09

Data Records for Saturday, 08 August 2015

Time	Temp	Chill	HIndex	Humid	Dewpt	 Wind 	HiWind	WindDir	Rain 	Barom
-----	----	-----	------	-----	-----	------	------	-------	-----	-----
00:00	68.1	68.1	68.1	73	59.1	0	0	---	0.00	29.883 
00:05	67.9	67.9	67.9	74	59.3	0	0	---	0.00	29.883 
00:10	67.8	67.8	67.8	74	59.2	0	0	---	0.00	29.883 
00:15	67.6	67.6	67.6	75	59.4	0	0	---	0.00	29.890 
00:20	67.4	67.4	67.4	75	59.2	0	0	---	0.00	29.890 
00:25	67.3	67.3	67.3	76	59.5	0	0	---	0.00	29.890 
00:30	67.1	67.1	67.1	76	59.3	0	0	---	0.00	29.891 
00:35	66.9	66.9	66.9	76	59.1	0	0	---	0.00	29.891 
00:40	66.8	66.8	66.8	77	59.3	0	0	---	0.00	29.891 
00:45	66.6	66.6	66.6	77	59.2	0	0	---	0.00	29.897 
00:50	66.4	66.4	66.4	78	59.3	0	0	---	0.00	29.897 
00:55	66.1	66.1	66.1	79	59.4	0	0	---	0.00	29.897 
01:00	66.0	66.0	66.0	79	59.3	0	0	---	0.00	29.894 
01:05	65.8	65.8	65.8	79	59.1	0	0	---	0.00	29.894 
01:10	65.6	65.6	65.6	80	59.3	0	0	---	0.00	29.894 
01:15	65.6	65.6	65.6	81	59.6	0	0	---	0.00	29.890 
01:20	65.5	65.5	65.5	81	59.5	0	0	---	0.00	29.890 
01:25	65.5	65.5	65.5	81	59.5	0	0	---	0.00	29.890 
01:30	65.5	65.5	65.5	81	59.5	0	0	---	0.00	29.888 
01:35	65.5	65.5	65.5	81	59.5	0	0	---	0.00	29.888 
01:40	65.3	65.3	65.3	81	59.3	0	0	---	0.00	29.888 
01:45	65.3	65.3	65.3	81	59.3	0	0	---	0.00	29.886 
01:50	65.3	65.3	65.3	81	59.3	0	0	---	0.00	29.886 
01:55	65.2	65.2	65.2	81	59.2	0	0	---	0.00	29.886 
02:00	65.2	65.2	65.2	81	59.2	0	0	---	0.00	29.885 
02:05	65.0	65.0	65.0	82	59.4	0	0	---	0.00	29.885 
02:10	65.0	65.0	65.0	82	59.4	0	0	---	0.00	29.885 
02:15	64.8	64.8	64.8	82	59.2	0	0	---	0.00	29.877 
02:20	64.8	64.8	64.8	82	59.2	0	0	---	0.00	29.877 
02:25	64.7	64.7	64.7	83	59.4	0	0	---	0.00	29.877 
02:30	64.7	64.7	64.7	83	59.4	0	0	---	0.00	29.872 
02:35	64.7	64.7	64.7	83	59.4	0	0	---	0.00	29.872 
02:40	64.5	64.5	64.5	83	59.2	0	0	---	0.00	29.872 
02:45	64.3	64.3	64.3	83	59.0	0	0	---	0.00	29.872 
02:50	64.3	64.3	64.3	83	59.0	0	0	---	0.00	29.872 
02:55	64.2	64.2	64.2	84	59.3	0	0	---	0.00	29.872 
03:00	64.0	64.0	64.0	84	59.1	0	0	---	0.00	29.867 
03:05	63.9	63.9	63.9	84	59.0	0	0	---	0.00	29.867 
03:10	63.7	63.7	63.7	84	58.8	0	0	---	0.00	29.867 
03:15	63.5	63.5	63.5	85	58.9	0	0	---	0.00	29.862 
03:20	63.5	63.5	63.5	85	58.9	0	0	---	0.00	29.862 
03:25	63.4	63.4	63.4	85	58.8	0	0	---	0.00	29.862 
03:30	63.4	63.4	63.4	86	59.1	0	0	---	0.00	29.866 
03:35	63.2	63.2	63.2	86	58.9	0	0	---	0.00	29.866 
03:40	63.1	63.1	63.1	86	58.8	0	0	---	0.00	29.866 
03:45	62.9	62.9	62.9	86	58.6	0	0	---	0.00	29.862 
03:50	62.9	62.9	62.9	87	59.0	0	0	---	0.00	29.862 
03:55	62.7	62.7	62.7	87	58.8	0	0	---	0.00	29.862 
04:00	62.6	62.6	62.6	87	58.7	0	0	---	0.00	29.859 
04:05	62.4	62.4	62.4	87	58.5	0	0	---	0.00	29.859 
04:10	62.4	62.4	62.4	87	58.5	0	0	---	0.00	29.859 
04:15	62.3	62.3	62.3	88	58.7	0	0	---	0.00	29.861 
04:20	62.1	62.1	62.1	88	58.5	0	0	---	0.00	29.861 
04:25	62.1	62.1	62.1	88	58.5	0	0	---	0.00	29.861 
04:30	62.0	62.0	62.0	88	58.4	0	0	---	0.00	29.865 
04:35	62.0	62.0	62.0	89	58.7	0	0	---	0.00	29.865 
04:40	62.0	62.0	62.0	89	58.7	0	0	---	0.00	29.865 
04:45	62.0	62.0	62.0	89	58.7	0	0	---	0.00	29.876 
04:50	61.8	61.8	61.8	89	58.5	0	0	---	0.00	29.876 
04:55	61.8	61.8	61.8	90	58.8	0	0	---	0.00	29.876 
05:00	61.6	61.6	61.6	90	58.6	0	0	---	0.00	29.879 
05:05	61.5	61.5	61.5	90	58.5	0	0	---	0.00	29.879 
05:10	61.3	61.3	61.3	90	58.3	0	0	---	0.00	29.879 
05:15	61.5	61.5	61.5	90	58.5	0	0	---	0.00	29.899 
05:20	61.3	61.3	61.3	90	58.3	0	0	---	0.00	29.899 
05:25	61.3	61.3	61.3	90	58.3	0	0	---	0.00	29.899 
05:30	61.2	61.2	61.2	91	58.5	0	0	---	0.00	29.891 
05:35	61.0	61.0	61.0	91	58.4	0	0	---	0.00	29.891 
05:40	61.0	61.0	61.0	91	58.4	0	0	---	0.00	29.891 
05:45	61.0	61.0	61.0	91	58.4	0	0	---	0.00	29.902 
05:50	61.0	61.0	61.0	91	58.4	0	0	---	0.00	29.902 
05:55	61.0	61.0	61.0	91	58.4	0	0	---	0.00	29.902 
06:00	61.2	61.2	61.2	91	58.5	0	0	---	0.00	29.906 
06:05	61.2	61.2	61.2	91	58.5	0	0	---	0.00	29.906 
06:10	61.3	61.3	61.3	91	58.6	0	0	---	0.00	29.906 
06:15	61.3	61.3	61.3	92	59.0	0	0	---	0.00	29.909 
06:20	61.5	61.5	61.5	92	59.2	0	0	---	0.00	29.909 
06:25	61.5	61.5	61.5	92	59.2	0	0	---	0.00	29.909 
06:30	61.6	61.6	61.6	92	59.2	0	0	---	0.00	29.909 
06:35	61.6	61.6	61.6	92	59.2	0	0	---	0.00	29.909 
06:40	61.6	61.6	61.6	92	59.2	0	0	---	0.00	29.909 
06:45	61.6	61.6	61.6	92	59.2	0	0	---	0.00	29.910 
06:50	61.8	61.8	61.8	92	59.4	0	0	---	0.00	29.910 
06:55	61.8	61.8	61.8	92	59.4	0	0	---	0.00	29.910 
07:00	62.0	62.0	62.0	92	59.6	0	0	---	0.00	29.904 
07:05	62.1	62.1	62.1	92	59.7	0	0	---	0.00	29.904 
07:10	62.3	62.3	62.3	92	59.9	0	0	---	0.00	29.904 
07:15	62.4	62.4	62.4	92	60.0	0	0	---	0.00	29.899 
07:20	62.6	62.6	62.6	92	60.2	0	0	---	0.00	29.899 
07:25	62.7	62.7	62.7	92	60.3	0	0	---	0.00	29.899 
07:30	62.9	62.9	62.9	92	60.5	0	0	---	0.00	29.911 
07:35	62.9	62.9	62.9	92	60.5	0	0	---	0.00	29.911 
07:40	63.1	63.1	63.1	92	60.7	0	0	---	0.00	29.911 
07:45	63.2	63.2	63.2	91	60.5	0	0	---	0.00	29.916 
07:50	63.2	63.2	63.2	91	60.5	0	0	---	0.00	29.916 
07:55	63.4	63.4	63.4	91	60.7	0	0	---	0.00	29.916 
08:00	63.4	63.4	63.4	90	60.4	0	0	---	0.00	29.912 
08:05	63.5	63.5	63.5	90	60.5	0	0	---	0.00	29.912 
08:10	64.0	64.0	64.0	89	60.7	0	0	---	0.00	29.912 
08:15	64.5	64.5	64.5	88	60.9	0	0	---	0.00	29.917 
08:20	65.2	65.2	65.2	87	61.2	0	0	---	0.00	29.917 
08:25	65.6	65.6	65.6	85	61.0	0	0	---	0.00	29.917 
08:30	65.8	65.8	65.8	85	61.2	0	0	---	0.00	29.924 
08:35	66.0	66.0	66.0	84	61.0	0	0	---	0.00	29.924 
08:40	66.0	66.0	66.0	85	61.4	0	0	---	0.00	29.924 
08:45	66.1	66.1	66.1	84	61.1	0	0	---	0.00	29.924 
08:50	66.3	66.3	66.3	84	61.3	0	0	---	0.00	29.924 
08:55	66.3	66.3	66.3	84	61.3	0	0	---	0.00	29.924 
09:00	66.4	66.4	66.4	84	61.4	0	0	---	0.00	29.930 
09:05	66.4	66.4	66.4	84	61.4	0	0	---	0.00	29.930 
09:10	66.4	66.4	66.4	84	61.4	0	0	---	0.00	29.930 
09:15	66.6	66.6	66.6	84	61.6	0	0	---	0.00	29.925 
09:20	66.8	66.8	66.8	84	61.8	0	0	---	0.00	29.925 
09:25	67.1	67.1	67.1	84	62.1	0	0	---	0.00	29.925 
09:30	67.4	67.4	67.4	84	62.4	0	0	---	0.00	29.924 
09:35	67.6	67.6	67.6	83	62.2	0	0	---	0.00	29.924 
09:40	67.9	67.9	67.9	83	62.5	0	0	---	0.00	29.924 
09:45	68.1	68.1	68.1	81	62.0	0	0	---	0.00	29.924 
09:50	68.3	68.3	68.3	81	62.2	0	0	---	0.00	29.924 
09:55	68.9	68.9	68.9	79	62.1	0	0	---	0.00	29.924 
10:00	69.8	69.8	69.8	77	62.3	0	0	---	0.00	29.921 
10:05	70.8	70.8	70.8	75	62.5	0	0	---	0.00	29.921 
10:10	72.0	72.0	72.0	73	62.9	0	0	---	0.00	29.921 
10:15	72.8	72.8	72.8	71	62.8	0	0	---	0.00	29.922 
10:20	73.3	73.3	73.3	69	62.5	0	0	---	0.00	29.922 
10:25	73.7	73.7	73.7	67	62.0	0	0	---	0.00	29.922 
10:30	74.2	74.2	74.2	67	62.5	0	0	---	0.00	29.923 
10:35	74.6	74.6	74.6	67	62.9	0	0	---	0.00	29.923 
10:40	74.6	74.6	74.6	67	62.9	0	0	---	0.00	29.923 
10:45	75.1	75.1	77.1	66	62.9	0	0	---	0.00	29.924 
10:50	75.3	75.3	77.2	66	63.1	0	0	---	0.00	29.924 
10:55	75.6	75.6	77.6	64	62.5	0	0	---	0.00	29.924 
11:00	76.5	76.5	78.3	64	63.4	0	0	---	0.00	29.925 
11:05	77.4	77.4	79.2	62	63.3	0	0	---	0.00	29.925 
11:10	77.4	77.4	79.1	61	62.9	0	0	---	0.00	29.925 
11:15	77.2	77.2	78.9	60	62.2	0	0	---	0.00	29.934 
11:20	77.0	77.0	78.8	62	63.0	0	0	---	0.00	29.934 
11:25	77.2	77.2	79.0	61	62.7	0	0	---	0.00	29.934 
11:30	77.4	77.4	79.1	60	62.4	0	0	---	0.00	29.935 
11:35	77.4	77.4	79.1	59	61.9	0	0	---	0.00	29.935 
11:40	77.6	77.6	79.3	59	62.1	0	0	---	0.00	29.935 
11:45	77.9	77.9	79.5	59	62.4	0	0	---	0.00	29.930 
11:50	78.3	78.3	79.9	58	62.3	0	0	---	0.00	29.930 
11:55	78.6	78.6	80.1	57	62.1	0	0	---	0.00	29.930 
12:00	78.8	78.8	80.1	55	61.2	0	0	---	0.00	29.921 
12:05	79.0	79.0	80.3	54	60.9	0	0	---	0.00	29.921 
12:10	79.6	79.6	80.8	54	61.5	0	0	---	0.00	29.921 
12:15	80.3	80.3	81.3	52	61.0	0	0	---	0.00	29.922 
12:20	80.7	80.7	81.9	54	62.5	0	0	---	0.00	29.922 
12:25	81.1	81.1	82.2	53	62.3	0	0	---	0.00	29.922 
12:30	80.5	80.5	81.8	55	62.8	0	0	---	0.00	29.928 
12:35	80.7	80.7	81.9	54	62.5	0	0	---	0.00	29.928 
12:40	81.2	81.2	82.2	52	61.9	0	0	---	0.00	29.928 
12:45	81.6	81.6	82.8	53	62.8	0	0	---	0.00	29.932 
12:50	81.8	81.8	83.0	53	63.0	0	0	---	0.00	29.932 
12:55	82.0	82.0	83.1	52	62.6	0	0	---	0.00	29.932 
13:00	81.8	81.8	82.7	51	61.9	0	0	---	0.00	29.927 
13:05	81.8	81.8	82.7	51	61.9	0	0	---	0.00	29.927 
13:10	81.6	81.6	82.6	52	62.2	0	0	---	0.00	29.927 
13:15	81.6	81.6	82.3	50	61.1	0	0	---	0.00	29.920 
13:20	82.0	82.0	83.2	53	63.2	0	0	---	0.00	29.920 
13:25	81.8	81.8	83.0	53	63.0	0	0	---	0.00	29.920 
13:30	82.2	82.2	83.5	53	63.3	0	0	---	0.00	29.919 
13:35	82.6	82.6	83.4	50	62.0	0	0	---	0.00	29.919 
13:40	83.0	83.0	83.9	50	62.4	0	0	---	0.00	29.919 
13:45	83.2	83.2	84.9	54	64.8	0	0	---	0.00	29.915 
13:50	83.4	83.4	84.2	49	62.2	0	0	---	0.00	29.915 
13:55	83.6	83.6	84.6	50	63.0	0	0	---	0.00	29.915 
14:00	83.8	83.8	84.9	50	63.1	0	0	---	0.00	29.914 
14:05	83.6	83.6	84.6	50	63.0	0	0	---	0.00	29.914 
14:10	83.4	83.4	83.8	47	61.0	1	5	90	0.00	29.914 
14:15	83.2	83.2	84.1	50	62.6	0	1	90	0.00	29.919 
14:20	83.2	83.2	84.0	49	62.0	0	2	90	0.00	29.919 
14:25	83.2	83.2	84.3	51	63.2	0	3	90	0.00	29.919 
14:30	83.4	83.4	84.0	48	61.6	0	3	90	0.00	29.919 
14:35	84.0	84.0	84.9	49	62.8	0	3	90	0.00	29.919 
14:40	84.5	84.5	85.6	49	63.2	0	1	90	0.00	29.919 
14:45	84.7	84.7	85.8	49	63.4	0	4	90	0.00	29.915 
14:50	84.5	84.5	84.9	46	61.4	0	2	90	0.00	29.915 
14:55	84.1	84.1	85.0	49	62.8	0	2	90	0.00	29.915 
15:00	84.3	84.3	85.7	51	64.2	0	2	90	0.00	29.911 
15:05	84.5	84.5	85.6	49	63.2	0	3	90	0.00	29.911 
15:10	84.5	84.5	85.6	49	63.2	0	2	90	0.00	29.911 
15:15	84.3	84.3	85.1	48	62.4	1	3	90	0.00	29.908 
15:20	84.1	84.1	85.0	49	62.8	0	2	90	0.00	29.908 
15:25	83.6	83.6	84.4	49	62.4	0	2	90	0.00	29.908 
15:30	82.8	82.8	83.7	50	62.2	0	1	90	0.00	29.912 
15:35	82.4	82.4	83.5	52	63.0	0	1	90	0.00	29.912 
15:40	82.4	82.4	83.7	53	63.5	0	3	90	0.00	29.912 
15:45	82.6	82.6	83.8	52	63.2	0	1	90	0.00	29.908 
15:50	82.6	82.6	84.0	53	63.7	0	1	90	0.00	29.908 
15:55	82.6	82.6	84.0	53	63.7	0	1	90	0.00	29.908 
16:00	82.2	82.2	83.5	53	63.3	0	1	90	0.00	29.910 
16:05	82.4	82.4	83.9	54	64.1	0	2	90	0.00	29.910 
16:10	83.0	83.0	84.5	53	64.1	0	1	90	0.00	29.910 
16:15	83.4	83.4	84.6	51	63.3	0	1	90	0.00	29.905 
16:20	83.4	83.4	84.8	52	63.9	0	1	90	0.00	29.905 
16:25	83.6	83.6	84.8	51	63.5	0	1	90	0.00	29.905 
16:30	83.4	83.4	84.6	51	63.3	0	1	90	0.00	29.906 
16:35	83.6	83.6	85.0	52	64.1	0	1	90	0.00	29.906 
16:40	83.8	83.8	85.3	52	64.3	0	0	---	0.00	29.906 
16:45	83.6	83.6	85.0	52	64.1	0	1	90	0.00	29.902 
16:50	83.2	83.2	84.5	52	63.7	0	1	90	0.00	29.902 
16:55	83.0	83.0	84.3	52	63.5	0	0	---	0.00	29.902 
17:00	82.8	82.8	84.0	52	63.3	0	1	90	0.00	29.904 
17:05	83.0	83.0	85.1	56	65.7	0	0	---	0.00	29.904 
17:10	83.2	83.2	84.9	54	64.8	0	1	90	0.00	29.904 
17:15	83.2	83.2	84.9	54	64.8	0	1	90	0.00	29.902 
17:20	83.0	83.0	84.7	54	64.6	0	1	90	0.00	29.902 
17:25	82.8	82.8	84.4	54	64.4	0	2	90	0.00	29.902 
17:30	82.4	82.4	83.9	54	64.1	0	2	90	0.00	29.903 
17:35	82.4	82.4	83.9	54	64.1	0	1	90	0.00	29.903 
17:40	82.2	82.2	83.6	54	63.9	0	1	90	0.00	29.903 
17:45	82.0	82.0	83.7	56	64.7	0	1	90	0.00	29.903 
17:50	81.8	81.8	83.5	56	64.5	0	2	90	0.00	29.903 
17:55	81.6	81.6	83.4	57	64.9	0	1	90	0.00	29.903 
18:00	81.4	81.4	83.3	58	65.2	0	1	90	0.00	29.901 
18:05	81.4	81.4	83.3	58	65.2	0	1	90	0.00	29.901 
18:10	81.2	81.2	83.0	58	65.0	0	0	---	0.00	29.901 
18:15	81.2	81.2	83.0	58	65.0	0	0	---	0.00	29.900 
18:20	81.2	81.2	83.0	58	65.0	0	0	---	0.00	29.900 
18:25	81.2	81.2	83.0	58	65.0	0	0	---	0.00	29.900 
18:30	81.2	81.2	82.9	57	64.5	0	1	90	0.00	29.899 
18:35	81.1	81.1	82.8	57	64.4	0	1	90	0.00	29.899 
18:40	81.1	81.1	82.8	57	64.4	0	1	90	0.00	29.899 
18:45	81.1	81.1	82.8	57	64.4	0	0	---	0.00	29.896 
18:50	81.2	81.2	82.9	57	64.5	0	0	---	0.00	29.896 
18:55	81.4	81.4	83.3	58	65.2	0	0	---	0.00	29.896 
19:00	81.4	81.4	83.1	57	64.7	0	1	90	0.00	29.897 
19:05	81.2	81.2	82.9	57	64.5	0	0	---	0.00	29.897 
19:10	80.9	80.9	82.7	58	64.7	0	0	---	0.00	29.897 
19:15	80.7	80.7	82.4	58	64.5	0	1	90	0.00	29.895 
19:20	80.5	80.5	82.3	59	64.8	0	1	90	0.00	29.895 
19:25	80.1	80.1	81.8	59	64.5	0	1	90	0.00	29.895 
19:30	80.1	80.1	81.9	60	64.9	0	0	---	0.00	29.892 
19:35	79.9	79.9	81.7	60	64.7	0	0	---	0.00	29.892 
19:40	79.9	79.9	81.8	61	65.2	0	1	90	0.00	29.892 
19:45	79.8	79.8	81.7	61	65.1	0	1	90	0.00	29.890 
19:50	79.8	79.8	81.7	61	65.1	0	0	---	0.00	29.890 
19:55	79.6	79.6	81.5	62	65.4	0	0	---	0.00	29.890 
20:00	79.6	79.6	81.5	62	65.4	0	0	---	0.00	29.895 
20:05	79.4	79.4	81.3	62	65.2	0	0	---	0.00	29.895 
20:10	79.2	79.2	81.1	63	65.5	0	0	---	0.00	29.895 
20:15	79.2	79.2	81.1	63	65.5	0	0	---	0.00	29.894 
20:20	79.0	79.0	81.0	64	65.8	0	0	---	0.00	29.894 
20:25	78.8	78.8	80.7	64	65.6	0	0	---	0.00	29.894 
20:30	78.6	78.6	80.6	65	65.8	0	0	---	0.00	29.899 
20:35	78.5	78.5	80.4	65	65.7	0	0	---	0.00	29.899 
20:40	78.3	78.3	80.2	66	66.0	0	0	---	0.00	29.899 
20:45	78.1	78.1	80.0	66	65.8	0	0	---	0.00	29.901 
20:50	77.9	77.9	79.8	67	66.0	0	0	---	0.00	29.901 
20:55	77.7	77.7	79.6	67	65.8	0	0	---	0.00	29.901 
21:00	77.7	77.7	79.6	67	65.8	0	0	---	0.00	29.903 
21:05	77.6	77.6	79.5	68	66.2	0	0	---	0.00	29.903 
21:10	77.6	77.6	79.5	69	66.6	0	0	---	0.00	29.903 
21:15	77.6	77.6	79.5	69	66.6	0	0	---	0.00	29.903 
21:20	77.4	77.4	79.3	70	66.8	0	0	---	0.00	29.903 
21:25	77.2	77.2	79.0	70	66.6	0	0	---	0.00	29.903 
21:30	77.2	77.2	79.0	71	67.0	0	0	---	0.00	29.912 
21:35	77.0	77.0	78.8	71	66.9	0	0	---	0.00	29.912 
21:40	76.8	76.8	78.5	71	66.7	0	0	---	0.00	29.912 
21:45	76.7	76.7	78.4	71	66.6	0	0	---	0.00	29.914 
21:50	76.7	76.7	78.4	72	67.0	0	0	---	0.00	29.914 
21:55	76.7	76.7	78.3	73	67.4	0	0	---	0.00	29.914 
22:00	76.5	76.5	78.1	74	67.6	0	0	---	0.00	29.917 
22:05	76.5	76.5	78.1	74	67.6	0	0	---	0.00	29.917 
22:10	76.3	76.3	77.8	74	67.4	0	0	---	0.00	29.917 
22:15	76.3	76.3	77.7	75	67.8	0	0	---	0.00	29.914 
22:20	76.3	76.3	77.7	75	67.8	0	0	---	0.00	29.914 
22:25	76.1	76.1	77.4	76	68.0	0	0	---	0.00	29.914 
22:30	76.1	76.1	77.4	76	68.0	0	0	---	0.00	29.918 
22:35	76.1	76.1	77.4	76	68.0	0	0	---	0.00	29.918 
22:40	76.0	76.0	77.3	76	67.9	0	0	---	0.00	29.918 
22:45	75.8	75.8	77.0	77	68.1	0	0	---	0.00	29.919 
22:50	75.6	75.6	76.7	77	67.9	0	0	---	0.00	29.919 
22:55	75.4	75.4	76.4	77	67.7	0	1	90	0.00	29.919 
23:00	75.3	75.3	76.3	77	67.6	0	0	---	0.00	29.916 
23:05	75.1	75.1	76.1	77	67.4	0	0	---	0.00	29.916 
23:10	74.9	74.9	74.9	77	67.2	0	0	---	0.00	29.916 
23:15	74.6	74.6	74.6	77	66.9	0	1	90	0.00	29.914 
23:20	74.4	74.4	74.4	77	66.7	0	1	90	0.00	29.914 
23:25	74.2	74.2	74.2	77	66.5	0	1	90	0.00	29.914 
23:30	74.2	74.2	74.2	77	66.5	0	1	90	0.00	29.925 
23:35	74.0	74.0	74.0	77	66.3	0	2	90	0.00	29.925 
23:40	73.9	73.9	73.9	77	66.2	0	1	90	0.00	29.925 
23:45	73.9	73.9	73.9	77	66.2	0	2	90	0.00	29.924 
23:50	73.7	73.7	73.7	77	66.0	0	1	90	0.00	29.924 
23:55	73.5	73.5	73.5	77	65.8	0	2	90	0.00	29.924 

CoCoRaHS
IN-AL-39
A2 Web Hosting
Creative Commons License
GoDaddy
search engine by freefind advanced

loaded 2018-11-14 00:03:35 • last modified 2010-11-18 10:43:29
Privacy PolicyDisclaimer
• wx.awcolley.com is powered by PmWiki v.2002016 •
• all content (unless otherwise noted) © 2018 A W Colley